createdAt,value
2023-05-15T00:00:36.477Z,34.60
2023-05-15T00:01:36.527Z,34.59
2023-05-15T00:02:36.650Z,34.60
2023-05-15T00:03:36.794Z,34.59
2023-05-15T00:04:36.788Z,34.65
2023-05-15T00:05:36.781Z,34.63
2023-05-15T00:06:36.829Z,34.60
2023-05-15T00:07:36.876Z,34.61
2023-05-15T00:08:36.909Z,34.58
2023-05-15T00:09:36.965Z,34.60
2023-05-15T00:10:37.368Z,34.60
2023-05-15T00:11:37.084Z,34.65
2023-05-15T00:12:37.135Z,34.62
2023-05-15T00:13:37.182Z,34.58
2023-05-15T00:14:37.226Z,34.61
2023-05-15T00:15:37.285Z,34.63
2023-05-15T00:16:37.442Z,34.63
2023-05-15T00:17:37.481Z,34.62
2023-05-15T00:18:37.665Z,34.68
2023-05-15T00:19:37.647Z,34.68
2023-05-15T00:20:37.673Z,34.66
2023-05-15T00:21:37.680Z,34.67
2023-05-15T00:22:37.726Z,34.68
2023-05-15T00:23:37.783Z,34.65
2023-05-15T00:24:37.829Z,34.74
2023-05-15T00:25:37.918Z,34.66
2023-05-15T00:26:37.977Z,34.59
2023-05-15T00:27:38.032Z,34.68
2023-05-15T00:28:38.080Z,34.75
2023-05-15T00:29:38.159Z,34.72
2023-05-15T00:30:38.199Z,34.65
2023-05-15T00:31:38.271Z,34.63
2023-05-15T00:32:38.328Z,34.64
2023-05-15T00:33:38.288Z,34.69
2023-05-15T00:34:38.336Z,34.65
2023-05-15T00:35:38.382Z,34.64
2023-05-15T00:36:38.434Z,34.64
2023-05-15T00:37:38.525Z,34.64
2023-05-15T00:38:38.618Z,34.65
2023-05-15T00:39:38.729Z,34.65
2023-05-15T00:40:38.740Z,34.62
2023-05-15T00:41:38.789Z,34.71
2023-05-15T00:42:38.831Z,34.65
2023-05-15T00:43:38.925Z,34.66
2023-05-15T00:44:38.895Z,34.64
2023-05-15T00:45:38.995Z,34.63
2023-05-15T00:46:39.073Z,34.60
2023-05-15T00:47:39.214Z,34.58
2023-05-15T00:48:39.247Z,34.63
2023-05-15T00:49:40.042Z,34.58
2023-05-15T00:50:39.431Z,34.61
2023-05-15T00:51:39.476Z,34.60
2023-05-15T00:52:39.494Z,34.65
2023-05-15T00:53:39.539Z,34.64
2023-05-15T00:54:39.528Z,34.58
2023-05-15T00:55:39.570Z,34.64
2023-05-15T00:56:39.658Z,34.61
2023-05-15T00:57:39.720Z,34.67
2023-05-15T00:58:39.757Z,34.64
2023-05-15T00:59:39.768Z,34.62
2023-05-15T01:00:39.842Z,34.62
2023-05-15T01:01:39.848Z,34.64
2023-05-15T01:02:40.005Z,34.64
2023-05-15T01:03:40.021Z,34.66
2023-05-15T01:04:40.035Z,34.65
2023-05-15T01:05:40.102Z,34.66
2023-05-15T01:06:40.166Z,34.66
2023-05-15T01:07:40.216Z,34.61
2023-05-15T01:08:40.243Z,34.63
2023-05-15T01:09:40.305Z,34.64
2023-05-15T01:10:40.341Z,34.67
2023-05-15T01:11:40.384Z,34.68
2023-05-15T01:12:40.437Z,34.65
2023-05-15T01:13:40.491Z,34.67
2023-05-15T01:14:40.527Z,34.73
2023-05-15T01:15:40.557Z,34.73
2023-05-15T01:16:40.614Z,34.66
2023-05-15T01:17:40.706Z,34.70
2023-05-15T01:18:40.848Z,34.66
2023-05-15T01:19:41.157Z,34.65
2023-05-15T01:20:40.880Z,34.61
2023-05-15T01:21:40.916Z,34.66
2023-05-15T01:22:40.978Z,34.76
2023-05-15T01:23:41.021Z,34.64
2023-05-15T01:24:41.049Z,34.67
2023-05-15T01:25:41.115Z,34.65
2023-05-15T01:26:41.157Z,34.70
2023-05-15T01:27:41.232Z,34.78
2023-05-15T01:28:41.314Z,34.62
2023-05-15T01:29:41.420Z,34.70
2023-05-15T01:30:41.518Z,34.64
2023-05-15T01:31:41.629Z,34.65
2023-05-15T01:32:41.675Z,34.69
2023-05-15T01:33:41.733Z,34.67
2023-05-15T01:34:41.766Z,34.70
2023-05-15T01:35:41.832Z,34.59
2023-05-15T01:36:41.869Z,34.71
2023-05-15T01:37:41.917Z,34.69
2023-05-15T01:38:41.964Z,34.69
2023-05-15T01:39:42.017Z,34.71
2023-05-15T01:40:42.063Z,34.67
2023-05-15T01:41:42.187Z,34.73
2023-05-15T01:42:42.189Z,34.67
2023-05-15T01:43:42.231Z,34.71
2023-05-15T01:44:42.316Z,34.67
2023-05-15T01:45:42.376Z,34.61
2023-05-15T01:46:42.468Z,34.61
2023-05-15T01:47:42.470Z,34.65
2023-05-15T01:48:42.480Z,34.68
2023-05-15T01:49:42.579Z,34.69
2023-05-15T01:50:42.693Z,34.63
2023-05-15T01:51:42.791Z,34.65
2023-05-15T01:52:42.918Z,34.68
2023-05-15T01:53:42.953Z,34.67
2023-05-15T01:54:43.046Z,34.65
2023-05-15T01:55:43.083Z,34.62
2023-05-15T01:56:43.099Z,34.64
2023-05-15T01:57:43.137Z,34.63
2023-05-15T01:58:43.196Z,34.66
2023-05-15T01:59:43.224Z,34.67
2023-05-15T02:00:43.316Z,34.74
2023-05-15T02:01:43.348Z,34.70
2023-05-15T02:02:43.435Z,34.67
2023-05-15T02:03:43.483Z,34.68
2023-05-15T02:04:43.407Z,34.72
2023-05-15T02:05:43.455Z,34.68
2023-05-15T02:06:43.484Z,34.71
2023-05-15T02:07:43.575Z,34.75
2023-05-15T02:08:43.612Z,34.76
2023-05-15T02:09:43.670Z,34.68
2023-05-15T02:10:43.735Z,34.77
2023-05-15T02:11:43.767Z,34.67
2023-05-15T02:12:43.832Z,34.74
2023-05-15T02:13:43.878Z,34.70
2023-05-15T02:14:43.931Z,34.72
2023-05-15T02:15:43.970Z,34.67
2023-05-15T02:16:44.085Z,34.68
2023-05-15T02:17:44.095Z,34.68
2023-05-15T02:18:44.126Z,34.74
2023-05-15T02:19:44.108Z,34.67
2023-05-15T02:20:44.115Z,34.62
2023-05-15T02:21:44.229Z,34.71
2023-05-15T02:22:44.227Z,34.68
2023-05-15T02:23:44.325Z,34.64
2023-05-15T02:24:44.340Z,34.68
2023-05-15T02:25:44.371Z,34.62
2023-05-15T02:26:44.386Z,34.64
2023-05-15T02:27:44.404Z,34.67
2023-05-15T02:28:44.449Z,34.71
2023-05-15T02:29:44.506Z,34.72
2023-05-15T02:30:44.596Z,34.68
2023-05-15T02:31:44.624Z,34.75
2023-05-15T02:32:44.705Z,34.75
2023-05-15T02:33:44.685Z,34.72
2023-05-15T02:34:44.696Z,34.68
2023-05-15T02:35:44.749Z,34.70
2023-05-15T02:36:44.803Z,34.66
2023-05-15T02:37:44.911Z,34.72
2023-05-15T02:38:44.919Z,34.67
2023-05-15T02:39:44.950Z,34.74
2023-05-15T02:40:44.987Z,34.69
2023-05-15T02:41:45.025Z,34.63
2023-05-15T02:42:45.029Z,34.66
2023-05-15T02:43:45.074Z,34.68
2023-05-15T02:44:45.162Z,34.69
2023-05-15T02:45:45.295Z,34.63
2023-05-15T02:46:45.367Z,34.67
2023-05-15T02:47:45.521Z,34.71
2023-05-15T02:48:45.516Z,34.66
2023-05-15T02:49:45.564Z,34.63
2023-05-15T02:50:45.612Z,34.65
2023-05-15T02:51:45.659Z,34.71
2023-05-15T02:52:45.683Z,34.73
2023-05-15T02:53:45.687Z,34.65
2023-05-15T02:54:45.746Z,34.71
2023-05-15T02:55:45.778Z,34.63
2023-05-15T02:56:45.811Z,34.71
2023-05-15T02:57:45.825Z,34.71
2023-05-15T02:58:45.846Z,34.70
2023-05-15T02:59:45.874Z,34.67
2023-05-15T03:00:45.907Z,34.72
2023-05-15T03:01:46.072Z,34.67
2023-05-15T03:02:46.049Z,34.74
2023-05-15T03:03:46.047Z,34.69
2023-05-15T03:04:47.061Z,34.69
2023-05-15T03:05:46.048Z,34.67
2023-05-15T03:06:46.061Z,34.76
2023-05-15T03:07:46.068Z,34.70
2023-05-15T03:08:46.092Z,34.77
2023-05-15T03:09:46.103Z,34.72
2023-05-15T03:10:46.207Z,34.68
2023-05-15T03:11:46.246Z,34.67
2023-05-15T03:12:46.258Z,34.68
2023-05-15T03:13:46.274Z,34.68
2023-05-15T03:14:46.283Z,34.69
2023-05-15T03:15:46.312Z,34.69
2023-05-15T03:16:46.458Z,34.66
2023-05-15T03:17:46.593Z,34.71
2023-05-15T03:18:46.572Z,34.70
2023-05-15T03:19:46.559Z,34.69
2023-05-15T03:20:46.575Z,34.67
2023-05-15T03:21:46.599Z,34.81
2023-05-15T03:22:46.634Z,34.72
2023-05-15T03:23:46.654Z,34.77
2023-05-15T03:24:46.680Z,34.76
2023-05-15T03:25:46.701Z,34.73
2023-05-15T03:26:46.732Z,34.73
2023-05-15T03:27:46.727Z,34.67
2023-05-15T03:28:46.814Z,34.74
2023-05-15T03:29:46.927Z,34.68
2023-05-15T03:30:47.051Z,34.83
2023-05-15T03:31:47.229Z,34.81
2023-05-15T03:32:47.316Z,34.72
2023-05-15T03:33:47.194Z,34.68
2023-05-15T03:34:47.234Z,34.68
2023-05-15T03:35:47.256Z,34.63
2023-05-15T03:36:47.353Z,34.73
2023-05-15T03:37:47.439Z,34.72
2023-05-15T03:38:47.547Z,34.72
2023-05-15T03:39:47.576Z,34.81
2023-05-15T03:40:50.252Z,34.78
2023-05-15T03:41:47.591Z,34.70
2023-05-15T03:42:47.599Z,34.68
2023-05-15T03:43:47.599Z,34.65
2023-05-15T03:44:47.611Z,34.75
2023-05-15T03:45:47.624Z,34.74
2023-05-15T03:46:47.661Z,34.70
2023-05-15T03:47:47.672Z,34.69
2023-05-15T03:48:47.636Z,34.65
2023-05-15T03:49:47.654Z,34.78
2023-05-15T03:50:47.662Z,34.75
2023-05-15T03:51:47.669Z,34.77
2023-05-15T03:52:47.692Z,34.78
2023-05-15T03:53:47.698Z,34.75
2023-05-15T03:54:47.718Z,34.74
2023-05-15T03:55:47.740Z,34.75
2023-05-15T03:56:47.747Z,34.68
2023-05-15T03:57:47.759Z,34.65
2023-05-15T03:58:47.792Z,34.75
2023-05-15T03:59:47.778Z,34.72
2023-05-15T04:00:47.792Z,34.73
2023-05-15T04:02:02.879Z,34.74
2023-05-15T04:02:48.910Z,34.69
2023-05-15T04:03:47.833Z,34.64
2023-05-15T04:04:47.859Z,34.70
2023-05-15T04:05:47.846Z,34.72
2023-05-15T04:06:47.862Z,34.75
2023-05-15T04:07:47.892Z,34.70
2023-05-15T04:08:47.900Z,34.71
2023-05-15T04:09:47.907Z,34.65
2023-05-15T04:10:47.916Z,34.72
2023-05-15T04:11:47.941Z,34.74
2023-05-15T04:12:48.049Z,34.70
2023-05-15T04:13:48.145Z,34.70
2023-05-15T04:14:48.260Z,34.72
2023-05-15T04:15:48.356Z,34.74
2023-05-15T04:16:48.556Z,34.70
2023-05-15T04:17:48.572Z,34.73
2023-05-15T04:18:48.517Z,34.64
2023-05-15T04:19:48.514Z,34.69
2023-05-15T04:20:48.522Z,34.69
2023-05-15T04:21:48.605Z,34.70
2023-05-15T04:22:48.624Z,34.78
2023-05-15T04:23:48.629Z,34.71
2023-05-15T04:24:48.635Z,34.73
2023-05-15T04:25:48.680Z,34.80
2023-05-15T04:26:48.746Z,34.71
2023-05-15T04:27:48.754Z,34.71
2023-05-15T04:29:00.228Z,34.65
2023-05-15T04:29:49.873Z,34.66
2023-05-15T04:30:48.872Z,34.70
2023-05-15T04:31:48.911Z,34.66
2023-05-15T04:32:48.960Z,34.77
2023-05-15T04:33:49.351Z,34.69
2023-05-15T04:34:48.935Z,34.69
2023-05-15T04:35:48.936Z,34.69
2023-05-15T04:36:48.954Z,34.64
2023-05-15T04:37:48.956Z,34.65
2023-05-15T04:38:48.969Z,34.66
2023-05-15T04:39:48.965Z,34.64
2023-05-15T04:40:48.968Z,34.61
2023-05-15T04:41:48.983Z,34.63
2023-05-15T04:42:48.988Z,34.66
2023-05-15T04:43:49.026Z,34.57
2023-05-15T04:44:49.128Z,34.60
2023-05-15T04:45:49.252Z,34.64
2023-05-15T04:46:49.365Z,34.60
2023-05-15T04:47:49.375Z,34.54
2023-05-15T04:48:49.372Z,34.59
2023-05-15T04:49:49.382Z,34.55
2023-05-15T04:50:49.396Z,34.56
2023-05-15T04:51:49.417Z,34.57
2023-05-15T04:52:49.514Z,34.55
2023-05-15T04:53:49.636Z,34.55
2023-05-15T04:54:49.640Z,34.54
2023-05-15T04:55:49.645Z,34.51
2023-05-15T04:56:49.678Z,34.50
2023-05-15T04:57:49.672Z,34.57
2023-05-15T04:58:49.701Z,34.51
2023-05-15T04:59:49.771Z,34.50
2023-05-15T05:00:49.787Z,34.47
2023-05-15T05:01:49.894Z,34.45
2023-05-15T05:02:49.881Z,34.44
2023-05-15T05:03:49.967Z,34.48
2023-05-15T05:04:50.020Z,34.45
2023-05-15T05:05:50.081Z,34.49
2023-05-15T05:06:50.171Z,34.50
2023-05-15T05:07:50.178Z,34.45
2023-05-15T05:08:50.221Z,34.49
2023-05-15T05:09:50.319Z,34.46
2023-05-15T05:10:50.425Z,34.48
2023-05-15T05:11:50.532Z,34.45
2023-05-15T05:12:50.562Z,34.50
2023-05-15T05:13:50.601Z,34.48
2023-05-15T05:14:50.651Z,34.49
2023-05-15T05:15:50.749Z,34.52
2023-05-15T05:16:50.764Z,34.49
2023-05-15T05:17:50.837Z,34.42
2023-05-15T05:18:50.915Z,34.45
2023-05-15T05:19:50.900Z,34.47
2023-05-15T05:20:50.980Z,34.50
2023-05-15T05:21:51.079Z,34.63
2023-05-15T05:22:52.097Z,34.85
2023-05-15T05:23:51.110Z,34.85
2023-05-15T05:24:51.146Z,35.15
2023-05-15T05:25:51.124Z,35.33
2023-05-15T05:26:51.130Z,35.73
2023-05-15T05:27:51.136Z,36.13
2023-05-15T05:28:51.146Z,36.24
2023-05-15T05:29:51.147Z,36.37
2023-05-15T05:30:51.145Z,36.49
2023-05-15T05:31:51.274Z,36.45
2023-05-15T05:32:51.275Z,36.41
2023-05-15T05:33:51.311Z,36.49
2023-05-15T05:34:51.388Z,36.47
2023-05-15T05:35:51.470Z,36.42
2023-05-15T05:36:51.559Z,36.39
2023-05-15T05:37:51.649Z,36.47
2023-05-15T05:38:51.724Z,36.53
2023-05-15T05:39:51.824Z,36.55
2023-05-15T05:40:51.979Z,36.47
2023-05-15T05:41:51.976Z,36.48
2023-05-15T05:42:52.046Z,36.48
2023-05-15T05:43:52.125Z,36.51
2023-05-15T05:44:52.200Z,36.47
2023-05-15T05:45:52.268Z,36.48
2023-05-15T05:46:52.330Z,36.47
2023-05-15T05:47:52.450Z,36.47
2023-05-15T05:48:52.469Z,36.49
2023-05-15T05:49:52.549Z,36.48
2023-05-15T05:50:52.637Z,36.47
2023-05-15T05:51:52.716Z,36.51
2023-05-15T05:52:52.776Z,36.48
2023-05-15T05:53:52.832Z,36.48
2023-05-15T05:54:52.918Z,36.45
2023-05-15T05:55:52.987Z,36.51
2023-05-15T05:56:53.060Z,36.48
2023-05-15T05:57:53.107Z,36.48
2023-05-15T05:58:53.187Z,36.48
2023-05-15T05:59:53.272Z,36.49
2023-05-15T06:00:53.342Z,36.49
2023-05-15T06:01:53.402Z,36.51
2023-05-15T06:02:53.560Z,36.53
2023-05-15T06:03:53.551Z,36.48
2023-05-15T06:04:53.554Z,36.51
2023-05-15T06:05:53.617Z,36.47
2023-05-15T06:06:53.675Z,36.46
2023-05-15T06:07:53.740Z,36.46
2023-05-15T06:08:56.384Z,36.44
2023-05-15T06:09:53.883Z,36.46
2023-05-15T06:10:53.850Z,36.43
2023-05-15T06:11:53.861Z,36.43
2023-05-15T06:12:53.881Z,36.38
2023-05-15T06:13:53.898Z,36.42
2023-05-15T06:14:53.895Z,36.35
2023-05-15T06:15:53.902Z,36.33
2023-05-15T06:16:53.964Z,36.35
2023-05-15T06:17:53.952Z,36.33
2023-05-15T06:18:53.967Z,36.33
2023-05-15T06:19:53.984Z,36.32
2023-05-15T06:20:53.957Z,36.29
2023-05-15T06:21:53.965Z,36.39
2023-05-15T06:22:53.971Z,36.37
2023-05-15T06:23:53.969Z,36.49
2023-05-15T06:24:53.996Z,36.60
2023-05-15T06:25:53.983Z,36.72
2023-05-15T06:26:53.989Z,36.49
2023-05-15T06:27:53.993Z,36.11
2023-05-15T06:28:54.014Z,35.83
2023-05-15T06:29:54.019Z,35.80
2023-05-15T06:30:54.096Z,35.85
2023-05-15T06:31:54.038Z,35.68
2023-05-15T06:32:54.139Z,35.56
2023-05-15T06:33:54.064Z,35.52
2023-05-15T06:34:54.083Z,35.61
2023-05-15T06:35:54.109Z,35.47
2023-05-15T06:36:54.111Z,35.34
2023-05-15T06:37:54.588Z,35.71
2023-05-15T06:38:54.136Z,35.51
2023-05-15T06:39:54.151Z,35.65
2023-05-15T06:40:54.179Z,35.59
2023-05-15T06:41:54.186Z,35.51
2023-05-15T06:42:54.211Z,35.65
2023-05-15T06:43:54.229Z,35.51
2023-05-15T06:44:54.246Z,35.21
2023-05-15T06:45:55.528Z,35.29
2023-05-15T06:46:54.399Z,35.44
2023-05-15T06:47:54.314Z,35.68
2023-05-15T06:48:54.291Z,35.94
2023-05-15T06:49:54.297Z,35.98
2023-05-15T06:50:54.316Z,36.32
2023-05-15T06:51:54.357Z,36.20
2023-05-15T06:52:54.333Z,36.14
2023-05-15T06:53:54.344Z,36.40
2023-05-15T06:54:54.403Z,36.31
2023-05-15T06:55:54.448Z,36.55
2023-05-15T06:56:54.489Z,36.72
2023-05-15T06:57:54.517Z,37.03
2023-05-15T06:58:54.536Z,37.08
2023-05-15T06:59:54.571Z,37.12
2023-05-15T07:00:56.355Z,36.99
2023-05-15T07:01:54.762Z,37.24
2023-05-15T07:02:54.744Z,37.19
2023-05-15T07:03:54.734Z,37.28
2023-05-15T07:04:54.790Z,37.14
2023-05-15T07:05:54.781Z,37.23
2023-05-15T07:06:55.785Z,37.17
2023-05-15T07:07:54.907Z,37.11
2023-05-15T07:08:54.959Z,36.84
2023-05-15T07:09:55.022Z,37.02
2023-05-15T07:10:55.087Z,37.00
2023-05-15T07:11:55.173Z,37.08
2023-05-15T07:12:55.269Z,36.96
2023-05-15T07:13:55.311Z,37.01
2023-05-15T07:14:55.391Z,37.14
2023-05-15T07:15:55.491Z,37.20
2023-05-15T07:16:55.581Z,37.19
2023-05-15T07:17:55.723Z,37.22
2023-05-15T07:18:55.727Z,37.17
2023-05-15T07:19:55.722Z,37.04
2023-05-15T07:20:55.773Z,37.08
2023-05-15T07:21:55.831Z,37.08
2023-05-15T07:22:56.955Z,36.98
2023-05-15T07:23:55.948Z,36.92
2023-05-15T07:24:56.008Z,36.85
2023-05-15T07:25:56.061Z,36.81
2023-05-15T07:26:58.618Z,36.82
2023-05-15T07:27:56.144Z,36.77
2023-05-15T07:28:56.195Z,36.76
2023-05-15T07:29:56.178Z,36.77
2023-05-15T07:30:56.705Z,36.74
2023-05-15T07:31:56.251Z,36.74
2023-05-15T07:32:56.152Z,36.76
2023-05-15T07:33:56.236Z,36.70
2023-05-15T07:34:56.174Z,36.64
2023-05-15T07:35:56.163Z,36.68
2023-05-15T07:36:56.191Z,36.68
2023-05-15T07:37:56.214Z,36.65
2023-05-15T07:38:56.181Z,36.61
2023-05-15T07:39:56.196Z,36.59
2023-05-15T07:40:56.188Z,36.55
2023-05-15T07:41:56.203Z,36.50
2023-05-15T07:42:56.201Z,36.40
2023-05-15T07:43:56.201Z,36.29
2023-05-15T07:44:56.247Z,36.17
2023-05-15T07:45:56.236Z,36.16
2023-05-15T07:46:56.250Z,36.17
2023-05-15T07:47:56.289Z,36.12
2023-05-15T07:48:56.235Z,36.02
2023-05-15T07:49:56.250Z,36.07
2023-05-15T07:50:56.249Z,36.01
2023-05-15T07:51:56.255Z,36.01
2023-05-15T07:52:56.264Z,36.01
2023-05-15T07:53:56.258Z,36.02
2023-05-15T07:54:56.261Z,36.01
2023-05-15T07:55:56.255Z,36.02
2023-05-15T07:56:56.275Z,36.00
2023-05-15T07:57:56.268Z,35.97
2023-05-15T07:58:56.307Z,36.02
2023-05-15T07:59:56.294Z,35.95
2023-05-15T08:00:56.273Z,35.97
2023-05-15T08:01:56.348Z,35.94
2023-05-15T08:02:56.486Z,35.97
2023-05-15T08:03:56.431Z,35.95
2023-05-15T08:04:56.339Z,36.00
2023-05-15T08:05:57.137Z,35.99
2023-05-15T08:06:56.329Z,35.97
2023-05-15T08:07:56.334Z,36.00
2023-05-15T08:08:56.333Z,35.98
2023-05-15T08:09:56.349Z,36.01
2023-05-15T08:10:56.369Z,36.04
2023-05-15T08:11:56.390Z,36.03
2023-05-15T08:12:56.392Z,36.04
2023-05-15T08:13:56.459Z,36.08
2023-05-15T08:14:57.214Z,36.13
2023-05-15T08:15:56.415Z,36.15
2023-05-15T08:16:56.404Z,36.28
2023-05-15T08:17:56.477Z,36.26
2023-05-15T08:18:56.773Z,36.37
2023-05-15T08:19:56.521Z,36.36
2023-05-15T08:20:56.477Z,36.42
2023-05-15T08:21:56.695Z,36.47
2023-05-15T08:22:57.142Z,36.49
2023-05-15T08:23:56.515Z,36.52
2023-05-15T08:24:57.312Z,36.54
2023-05-15T08:25:56.596Z,36.54
2023-05-15T08:26:56.647Z,36.57
2023-05-15T08:27:56.669Z,36.53
2023-05-15T08:28:57.638Z,36.54
2023-05-15T08:29:56.753Z,36.55
2023-05-15T08:30:56.801Z,36.50
2023-05-15T08:31:56.831Z,36.46
2023-05-15T08:32:57.019Z,36.43
2023-05-15T08:33:56.896Z,36.45
2023-05-15T08:34:56.933Z,36.42
2023-05-15T08:35:56.977Z,36.42
2023-05-15T08:36:57.018Z,36.43
2023-05-15T08:37:57.724Z,36.48
2023-05-15T08:38:57.110Z,36.42
2023-05-15T08:39:57.144Z,36.42
2023-05-15T08:40:57.183Z,36.40
2023-05-15T08:41:57.225Z,36.43
2023-05-15T08:42:57.268Z,36.41
2023-05-15T08:43:57.317Z,36.43
2023-05-15T08:44:57.348Z,36.45
2023-05-15T08:45:57.386Z,36.40
2023-05-15T08:46:57.489Z,36.42
2023-05-15T08:47:57.540Z,36.38
2023-05-15T08:48:57.516Z,36.37
2023-05-15T08:49:57.579Z,36.38
2023-05-15T08:50:57.584Z,36.37
2023-05-15T08:51:57.635Z,36.35
2023-05-15T08:52:57.681Z,36.37
2023-05-15T08:53:57.731Z,36.34
2023-05-15T08:54:57.757Z,36.36
2023-05-15T08:55:57.808Z,36.37
2023-05-15T08:56:57.851Z,36.34
2023-05-15T08:57:57.907Z,36.38
2023-05-15T08:58:58.035Z,36.38
2023-05-15T08:59:57.994Z,36.38
2023-05-15T09:00:58.215Z,36.29
2023-05-15T09:01:58.119Z,36.29
2023-05-15T09:02:58.219Z,36.27
2023-05-15T09:03:58.203Z,36.28
2023-05-15T09:04:58.222Z,36.31
2023-05-15T09:05:58.270Z,36.30
2023-05-15T09:06:58.316Z,36.30
2023-05-15T09:07:58.346Z,36.31
2023-05-15T09:08:58.381Z,36.29
2023-05-15T09:09:58.435Z,36.26
2023-05-15T09:10:58.475Z,36.33
2023-05-15T09:11:58.534Z,36.34
2023-05-15T09:12:58.579Z,36.31
2023-05-15T09:13:59.162Z,36.32
2023-05-15T09:14:58.682Z,36.30
2023-05-15T09:15:58.734Z,36.27
2023-05-15T09:16:58.809Z,36.31
2023-05-15T09:17:58.871Z,36.31
2023-05-15T09:18:58.986Z,36.33
2023-05-15T09:19:58.945Z,36.36
2023-05-15T09:20:58.997Z,36.31
2023-05-15T09:21:59.052Z,36.60
2023-05-15T09:22:59.132Z,36.55
2023-05-15T09:23:59.148Z,36.85
2023-05-15T09:24:59.201Z,36.93
2023-05-15T09:26:00.765Z,37.14
2023-05-15T09:26:59.285Z,37.22
2023-05-15T09:28:00.271Z,37.40
2023-05-15T09:28:59.361Z,37.50
2023-05-15T09:29:59.402Z,37.54
2023-05-15T09:30:59.433Z,37.67
2023-05-15T09:31:59.481Z,37.77
2023-05-15T09:32:59.546Z,37.84
2023-05-15T09:33:59.502Z,37.88
2023-05-15T09:34:59.535Z,38.03
2023-05-15T09:35:59.558Z,38.08
2023-05-15T09:36:59.580Z,38.28
2023-05-15T09:38:00.297Z,38.33
2023-05-15T09:38:59.696Z,38.41
2023-05-15T09:39:59.631Z,38.55
2023-05-15T09:41:00.261Z,38.57
2023-05-15T09:41:59.728Z,38.67
2023-05-15T09:42:59.751Z,38.96
2023-05-15T09:43:59.788Z,38.94
2023-05-15T09:44:59.855Z,38.99
2023-05-15T09:45:59.940Z,39.16
2023-05-15T09:47:00.720Z,39.25
2023-05-15T09:48:00.862Z,39.36
2023-05-15T09:49:00.157Z,39.44
2023-05-15T09:50:00.184Z,39.48
2023-05-15T09:51:00.211Z,39.49
2023-05-15T09:52:00.256Z,39.66
2023-05-15T09:53:00.287Z,39.75
2023-05-15T09:54:00.341Z,39.79
2023-05-15T09:55:00.393Z,40.02
2023-05-15T09:56:00.455Z,40.03
2023-05-15T09:57:00.526Z,40.03
2023-05-15T09:58:00.584Z,40.17
2023-05-15T09:59:00.660Z,40.34
2023-05-15T10:00:01.124Z,40.50
2023-05-15T10:01:00.817Z,40.52
2023-05-15T10:02:00.925Z,40.62
2023-05-15T10:03:01.040Z,40.76
2023-05-15T10:04:01.003Z,40.72
2023-05-15T10:05:01.097Z,40.78
2023-05-15T10:06:01.165Z,40.84
2023-05-15T10:07:01.201Z,40.94
2023-05-15T10:08:01.325Z,41.01
2023-05-15T10:09:01.323Z,41.26
2023-05-15T10:10:01.403Z,41.33
2023-05-15T10:11:01.481Z,41.43
2023-05-15T10:12:01.477Z,41.50
2023-05-15T10:13:01.534Z,41.61
2023-05-15T10:14:01.590Z,41.63
2023-05-15T10:15:01.636Z,41.85
2023-05-15T10:16:01.732Z,41.98
2023-05-15T10:17:01.754Z,42.05
2023-05-15T10:18:01.806Z,42.09
2023-05-15T10:19:04.321Z,42.09
2023-05-15T10:20:02.786Z,41.99
2023-05-15T10:21:01.831Z,42.03
2023-05-15T10:22:01.838Z,42.03
2023-05-15T10:23:01.839Z,41.89
2023-05-15T10:24:01.855Z,41.84
2023-05-15T10:25:01.858Z,41.88
2023-05-15T10:26:01.854Z,41.85
2023-05-15T10:27:01.853Z,41.76
2023-05-15T10:28:01.851Z,41.84
2023-05-15T10:29:02.862Z,41.80
2023-05-15T10:30:01.856Z,41.72
2023-05-15T10:31:01.907Z,41.77
2023-05-15T10:32:01.862Z,41.71
2023-05-15T10:33:01.880Z,41.79
2023-05-15T10:34:01.846Z,41.66
2023-05-15T10:35:01.838Z,41.54
2023-05-15T10:36:01.847Z,41.47
2023-05-15T10:37:01.835Z,41.56
2023-05-15T10:38:01.833Z,41.65
2023-05-15T10:39:01.835Z,41.54
2023-05-15T10:40:01.877Z,41.71
2023-05-15T10:41:16.086Z,41.83
2023-05-15T10:42:02.845Z,41.89
2023-05-15T10:43:01.849Z,41.96
2023-05-15T10:44:01.849Z,42.04
2023-05-15T10:45:01.854Z,42.02
2023-05-15T10:46:01.860Z,42.04
2023-05-15T10:47:01.953Z,42.07
2023-05-15T10:48:02.096Z,42.02
2023-05-15T10:49:01.888Z,42.04
2023-05-15T10:50:01.883Z,41.98
2023-05-15T10:51:01.860Z,42.08
2023-05-15T10:52:01.858Z,42.07
2023-05-15T10:53:01.875Z,42.10
2023-05-15T10:54:02.788Z,42.17
2023-05-15T10:55:01.863Z,42.29
2023-05-15T10:56:01.930Z,42.31
2023-05-15T10:57:01.868Z,42.25
2023-05-15T10:58:01.856Z,42.30
2023-05-15T10:59:01.876Z,42.25
2023-05-15T11:00:01.862Z,42.19
2023-05-15T11:01:01.891Z,42.28
2023-05-15T11:02:01.903Z,42.38
2023-05-15T11:03:01.880Z,42.29
2023-05-15T11:04:01.912Z,42.27
2023-05-15T11:05:01.915Z,42.34
2023-05-15T11:06:01.871Z,42.20
2023-05-15T11:07:01.912Z,41.73
2023-05-15T11:08:01.925Z,41.95
2023-05-15T11:09:01.905Z,42.04
2023-05-15T11:10:03.155Z,41.75
2023-05-15T11:11:01.939Z,41.71
2023-05-15T11:12:01.961Z,41.61
2023-05-15T11:13:01.993Z,41.36
2023-05-15T11:14:02.052Z,41.33
2023-05-15T11:15:02.065Z,41.17
2023-05-15T11:16:02.127Z,41.22
2023-05-15T11:17:02.219Z,41.14
2023-05-15T11:18:02.289Z,41.24
2023-05-15T11:19:02.355Z,41.16
2023-05-15T11:20:02.330Z,41.12
2023-05-15T11:21:02.376Z,41.05
2023-05-15T11:22:02.441Z,40.90
2023-05-15T11:23:02.488Z,40.87
2023-05-15T11:24:02.564Z,40.71
2023-05-15T11:25:02.673Z,40.62
2023-05-15T11:26:02.794Z,40.60
2023-05-15T11:27:02.781Z,40.71
2023-05-15T11:28:02.849Z,40.55
2023-05-15T11:29:02.929Z,40.25
2023-05-15T11:30:03.001Z,40.23
2023-05-15T11:31:03.121Z,39.43
2023-05-15T11:32:03.146Z,39.79
2023-05-15T11:33:03.288Z,39.83
2023-05-15T11:34:03.263Z,39.85
2023-05-15T11:35:03.318Z,40.04
2023-05-15T11:36:03.364Z,40.24
2023-05-15T11:37:03.396Z,40.47
2023-05-15T11:38:03.441Z,40.54
2023-05-15T11:39:03.500Z,40.45
2023-05-15T11:40:03.533Z,40.36
2023-05-15T11:41:03.613Z,40.36
2023-05-15T11:42:03.646Z,40.23
2023-05-15T11:43:03.698Z,40.18
2023-05-15T11:44:03.745Z,40.11
2023-05-15T11:45:03.764Z,39.98
2023-05-15T11:46:03.983Z,39.90
2023-05-15T11:47:03.900Z,39.94
2023-05-15T11:48:03.958Z,39.98
2023-05-15T11:49:03.976Z,39.91
2023-05-15T11:50:04.028Z,39.87
2023-05-15T11:51:04.104Z,39.85
2023-05-15T11:52:04.265Z,39.87
2023-05-15T11:53:04.240Z,39.89
2023-05-15T11:54:05.247Z,39.90
2023-05-15T11:55:05.258Z,39.86
2023-05-15T11:56:04.247Z,39.80
2023-05-15T11:57:04.257Z,39.82
2023-05-15T11:58:04.321Z,39.84
2023-05-15T11:59:04.266Z,39.83
2023-05-15T12:00:04.263Z,39.83
2023-05-15T12:01:04.262Z,39.81
2023-05-15T12:02:04.253Z,39.74
2023-05-15T12:03:04.289Z,39.72
2023-05-15T12:04:04.377Z,39.77
2023-05-15T12:05:04.272Z,39.72
2023-05-15T12:06:04.282Z,39.71
2023-05-15T12:07:04.269Z,39.63
2023-05-15T12:08:04.308Z,39.64
2023-05-15T12:09:04.383Z,39.63
2023-05-15T12:10:04.407Z,39.56
2023-05-15T12:11:04.497Z,39.58
2023-05-15T12:12:04.548Z,39.53
2023-05-15T12:13:04.566Z,39.57
2023-05-15T12:14:04.635Z,39.56
2023-05-15T12:15:04.685Z,39.51
2023-05-15T12:16:04.836Z,39.58
2023-05-15T12:17:04.897Z,39.51
2023-05-15T12:18:04.880Z,39.46
2023-05-15T12:19:04.898Z,39.47
2023-05-15T12:20:04.906Z,39.48
2023-05-15T12:21:04.949Z,39.40
2023-05-15T12:22:04.967Z,39.38
2023-05-15T12:23:05.036Z,39.39
2023-05-15T12:24:08.120Z,39.40
2023-05-15T12:25:05.083Z,39.33
2023-05-15T12:26:05.109Z,39.35
2023-05-15T12:27:05.114Z,39.32
2023-05-15T12:28:05.095Z,39.32
2023-05-15T12:29:05.105Z,39.26
2023-05-15T12:30:05.096Z,39.30
2023-05-15T12:31:05.095Z,39.28
2023-05-15T12:32:05.212Z,39.26
2023-05-15T12:33:05.166Z,39.30
2023-05-15T12:34:05.131Z,39.28
2023-05-15T12:35:05.138Z,39.25
2023-05-15T12:36:05.122Z,39.23
2023-05-15T12:37:05.121Z,39.25
2023-05-15T12:38:05.136Z,39.23
2023-05-15T12:39:05.133Z,39.22
2023-05-15T12:40:05.157Z,39.23
2023-05-15T12:41:05.168Z,39.20
2023-05-15T12:42:05.176Z,39.18
2023-05-15T12:43:05.170Z,39.22
2023-05-15T12:44:05.187Z,39.20
2023-05-15T12:45:05.176Z,39.19
2023-05-15T12:46:05.200Z,39.18
2023-05-15T12:47:05.204Z,39.19
2023-05-15T12:48:05.204Z,39.15
2023-05-15T12:49:05.188Z,39.16
2023-05-15T12:50:05.186Z,39.14
2023-05-15T12:51:05.192Z,39.15
2023-05-15T12:52:05.193Z,39.18
2023-05-15T12:53:05.209Z,39.18